Time;durP1;ratioP1;P1;durP2;ratioP2;P2;SDS_P1;SDS_P2;PMS_P1;PMS_P2;Temp;Humidity;BMP_temperature;BMP_pressure;BME280_temperature;BME280_humidity;BME280_pressure;Samples;Min_cycle;Max_cycle;Signal;HPM_P1;HPM_P2
2022/07/11 00:01:46;;;;;;;;;5.00;5.00;24.40;33.70;;;;;;5094409;28;8847;-80
2022/07/11 00:04:11;;;;;;;;;6.00;6.00;24.40;33.50;;;;;;5094181;28;8897;-80
2022/07/11 00:06:37;;;;;;;;;4.00;4.00;24.30;33.40;;;;;;5094255;28;8748;-80
2022/07/11 00:09:03;;;;;;;;;4.33;4.00;24.40;33.60;;;;;;5094176;28;8772;-80
2022/07/11 00:11:29;;;;;;;;;5.00;5.00;24.40;33.50;;;;;;5094125;28;8759;-80
2022/07/11 00:13:55;;;;;;;;;4.00;3.00;24.40;33.10;;;;;;5094174;28;8732;-80
2022/07/11 00:16:21;;;;;;;;;4.00;4.00;24.40;33.10;;;;;;5094097;28;8748;-80
2022/07/11 00:18:47;;;;;;;;;3.33;3.33;24.30;33.00;;;;;;5093662;28;11463;-80
2022/07/11 00:21:13;;;;;;;;;5.00;5.00;23.90;33.10;;;;;;5094091;28;8771;-80
2022/07/11 00:23:39;;;;;;;;;5.67;5.00;23.90;33.70;;;;;;5093998;28;8864;-79
2022/07/11 00:26:05;;;;;;;;;4.00;4.00;23.90;34.00;;;;;;5094270;28;8780;-79
2022/07/11 00:28:31;;;;;;;;;5.33;5.33;23.90;33.90;;;;;;5093947;28;8853;-80
2022/07/11 00:30:56;;;;;;;;;4.00;4.00;24.00;34.10;;;;;;5097167;28;11396;-79
2022/07/11 00:33:22;;;;;;;;;5.00;5.00;23.90;34.10;;;;;;5097840;28;9522;-79
2022/07/11 00:35:48;;;;;;;;;5.00;5.00;24.00;34.20;;;;;;5097892;28;8775;-80
2022/07/11 00:38:14;;;;;;;;;4.67;4.00;24.00;34.10;;;;;;5097650;28;8756;-79
2022/07/11 00:40:40;;;;;;;;;5.00;5.00;24.10;34.10;;;;;;5097647;28;8794;-80
2022/07/11 00:43:06;;;;;;;;;4.00;4.00;24.10;33.80;;;;;;5097753;28;8799;-79
2022/07/11 00:45:32;;;;;;;;;4.00;4.00;24.00;33.60;;;;;;5095552;28;11552;-81
2022/07/11 00:47:59;;;;;;;;;4.00;4.00;24.10;33.60;;;;;;5097274;28;11434;-80
2022/07/11 00:50:25;;;;;;;;;3.00;3.00;24.00;33.70;;;;;;5097318;28;11412;-80
2022/07/11 00:52:52;;;;;;;;;5.00;4.33;24.00;33.20;;;;;;5097485;28;11376;-80
2022/07/11 00:55:20;;;;;;;;;4.00;4.00;23.70;34.80;;;;;;5097443;28;11494;-80
2022/07/11 00:57:46;;;;;;;;;4.33;4.33;23.50;34.50;;;;;;5097238;28;11429;-80
2022/07/11 01:00:12;;;;;;;;;5.00;5.00;23.40;34.60;;;;;;5097051;28;11386;-79
2022/07/11 01:02:39;;;;;;;;;4.67;4.67;23.50;34.70;;;;;;5097257;28;11409;-80
2022/07/11 01:05:05;;;;;;;;;4.00;4.00;23.60;34.70;;;;;;5096954;28;11487;-79
2022/07/11 01:07:32;;;;;;;;;3.33;3.33;23.70;34.70;;;;;;5097017;28;11394;-79
2022/07/11 01:09:58;;;;;;;;;3.33;3.33;23.70;34.30;;;;;;5097018;28;11383;-80
2022/07/11 01:12:25;;;;;;;;;4.67;4.67;23.50;33.90;;;;;;5097035;28;12047;-80
2022/07/11 01:14:54;;;;;;;;;3.00;3.00;23.30;35.00;;;;;;5096889;28;11506;-80
2022/07/11 01:17:21;;;;;;;;;5.67;5.67;23.30;35.30;;;;;;5078795;28;11455;-80
2022/07/11 01:19:46;;;;;;;;;5.67;5.00;23.10;35.90;;;;;;5096560;28;11485;-80
2022/07/11 01:22:21;;;;;;;;;5.00;5.00;23.00;36.80;;;;;;5096732;28;11398;-79
2022/07/11 01:24:46;;;;;;;;;5.33;4.33;22.80;37.40;;;;;;5096697;28;8856;-80
2022/07/11 01:27:13;;;;;;;;;5.00;5.00;22.60;38.20;;;;;;5096554;28;11391;-78
2022/07/11 01:29:39;;;;;;;;;5.00;5.00;22.50;38.70;;;;;;5096825;28;8764;-79
2022/07/11 01:32:07;;;;;;;;;5.00;5.00;22.50;38.70;;;;;;5096492;28;11490;-79
2022/07/11 01:34:33;;;;;;;;;6.00;4.00;22.50;38.70;;;;;;5096714;28;11484;-79
2022/07/11 01:36:59;;;;;;;;;5.33;5.33;22.40;39.00;;;;;;5096446;28;11466;-79
2022/07/11 01:39:29;;;;;;;;;6.67;6.67;22.60;38.70;;;;;;5096377;28;11413;-80
2022/07/11 01:41:56;;;;;;;;;6.00;6.00;22.30;39.70;;;;;;5096201;28;8877;-79
2022/07/11 01:44:22;;;;;;;;;5.00;5.00;22.10;40.10;;;;;;5078417;28;8810;-79
2022/07/11 01:46:48;;;;;;;;;6.00;6.00;22.00;41.00;;;;;;5096269;28;8751;-79
2022/07/11 01:49:15;;;;;;;;;4.33;4.33;21.80;41.20;;;;;;5096614;28;8818;-79
2022/07/11 01:51:41;;;;;;;;;4.33;4.33;22.00;41.00;;;;;;5096228;28;8961;-80
2022/07/11 01:54:07;;;;;;;;;7.00;6.00;22.10;40.70;;;;;;5096157;28;11363;-80
2022/07/11 01:56:36;;;;;;;;;6.00;6.00;21.90;41.40;;;;;;5096328;28;12088;-79
2022/07/11 01:59:02;;;;;;;;;7.00;7.00;21.60;42.30;;;;;;5096382;28;8784;-78
2022/07/11 02:01:29;;;;;;;;;5.33;5.00;21.50;42.50;;;;;;5096048;28;8794;-79
2022/07/11 02:03:55;;;;;;;;;5.00;5.00;21.50;42.80;;;;;;5096224;28;11421;-79
2022/07/11 02:06:20;;;;;;;;;4.67;4.00;21.60;42.10;;;;;;5095781;28;11410;-79
2022/07/11 02:08:46;;;;;;;;;5.00;5.00;21.80;41.90;;;;;;5096021;28;8752;-79
2022/07/11 02:11:12;;;;;;;;;6.33;6.00;21.80;41.70;;;;;;5095959;28;8763;-79
2022/07/11 02:13:38;;;;;;;;;8.00;7.00;21.70;41.70;;;;;;5096067;28;8760;-79
2022/07/11 02:16:05;;;;;;;;;5.00;5.00;21.70;41.80;;;;;;5095768;28;8797;-79
2022/07/11 02:18:33;;;;;;;;;10.00;7.00;21.70;42.10;;;;;;5095784;28;9446;-79
2022/07/11 02:20:58;;;;;;;;;4.00;4.00;21.20;43.60;;;;;;5095824;28;9464;-80
2022/07/11 02:23:24;;;;;;;;;7.00;7.00;20.90;44.20;;;;;;5096214;28;8779;-79
2022/07/11 02:25:51;;;;;;;;;6.00;6.00;20.80;44.50;;;;;;5095781;28;8799;-79
2022/07/11 02:28:17;;;;;;;;;6.00;6.00;21.00;43.90;;;;;;5095554;28;8784;-80
2022/07/11 02:30:45;;;;;;;;;8.67;7.67;21.40;43.10;;;;;;5077593;28;8818;-80
2022/07/11 02:33:15;;;;;;;;;7.00;7.00;21.70;42.30;;;;;;5095665;28;8791;-80
2022/07/11 02:35:42;;;;;;;;;4.33;4.33;22.00;41.60;;;;;;5095496;28;8764;-79
2022/07/11 02:38:08;;;;;;;;;7.00;5.00;22.10;40.80;;;;;;5095502;28;8761;-79
2022/07/11 02:40:34;;;;;;;;;7.00;7.00;22.20;40.30;;;;;;5095606;28;8941;-80
2022/07/11 02:43:00;;;;;;;;;5.67;5.00;22.30;40.00;;;;;;5095291;28;8846;-80
2022/07/11 02:45:26;;;;;;;;;6.00;6.00;22.40;39.80;;;;;;5095385;28;8889;-79
2022/07/11 02:47:51;;;;;;;;;6.00;6.00;22.40;39.60;;;;;;5095156;28;8819;-79
2022/07/11 02:50:17;;;;;;;;;6.00;6.00;22.40;39.60;;;;;;5095181;28;8760;-79
2022/07/11 02:52:44;;;;;;;;;7.00;7.00;22.50;39.40;;;;;;5094426;28;8752;-79
2022/07/11 02:55:12;;;;;;;;;5.33;5.33;22.50;39.40;;;;;;5077137;28;12123;-79
2022/07/11 02:57:38;;;;;;;;;7.00;7.00;22.50;39.20;;;;;;5095145;28;11524;-79
2022/07/11 03:00:07;;;;;;;;;6.33;6.33;22.50;39.00;;;;;;5094894;28;11364;-79
2022/07/11 03:02:33;;;;;;;;;5.33;5.33;22.50;38.80;;;;;;5094849;28;11377;-78
2022/07/11 03:04:58;;;;;;;;;4.00;4.00;22.40;38.40;;;;;;5094850;28;8912;-79
2022/07/11 03:07:28;;;;;;;;;5.00;5.00;22.00;39.00;;;;;;5095045;28;8822;-80
2022/07/11 03:09:54;;;;;;;;;5.00;5.00;21.50;40.30;;;;;;5094818;28;8873;-80
2022/07/11 03:12:21;;;;;;;;;5.00;5.00;21.20;41.60;;;;;;5095110;28;8837;-79
2022/07/11 03:14:46;;;;;;;;;7.00;7.00;21.20;41.50;;;;;;5094729;28;8774;-80
2022/07/11 03:17:12;;;;;;;;;7.33;7.33;21.50;40.90;;;;;;5094576;28;8756;-80
2022/07/11 03:19:38;;;;;;;;;6.33;6.33;21.70;40.80;;;;;;5094596;28;8818;-80
2022/07/11 03:22:04;;;;;;;;;6.00;5.33;21.70;40.80;;;;;;5076779;28;8784;-79
2022/07/11 03:24:30;;;;;;;;;7.00;7.00;21.60;40.80;;;;;;5094581;28;8814;-81
2022/07/11 03:26:56;;;;;;;;;7.00;7.00;21.50;41.30;;;;;;5094517;28;11381;-79
2022/07/11 03:29:22;;;;;;;;;7.67;6.00;21.60;41.20;;;;;;5094609;28;8787;-79
2022/07/11 03:31:48;;;;;;;;;7.67;7.00;21.80;40.90;;;;;;5094589;28;8756;-79
2022/07/11 03:34:14;;;;;;;;;7.00;7.00;21.90;40.50;;;;;;5094793;28;8778;-79
2022/07/11 03:36:40;;;;;;;;;7.00;7.00;21.90;40.30;;;;;;5094691;28;8803;-80
2022/07/11 03:39:06;;;;;;;;;6.00;5.33;22.00;40.20;;;;;;5094488;28;8771;-80
2022/07/11 03:41:31;;;;;;;;;6.67;6.67;21.90;40.30;;;;;;5094372;28;8776;-80
2022/07/11 03:43:57;;;;;;;;;5.33;5.33;21.70;40.80;;;;;;5094760;28;8759;-79
2022/07/11 03:46:23;;;;;;;;;6.00;6.00;21.30;41.70;;;;;;5094798;28;8823;-78
2022/07/11 03:48:49;;;;;;;;;6.00;6.00;20.70;43.00;;;;;;5094653;28;8876;-80
2022/07/11 03:51:19;;;;;;;;;6.67;6.67;20.60;43.30;;;;;;5094582;28;9472;-79
2022/07/11 03:53:45;;;;;;;;;7.00;6.67;20.60;43.20;;;;;;5094602;28;8795;-79
2022/07/11 03:56:10;;;;;;;;;6.67;6.00;21.00;42.20;;;;;;5076594;28;8775;-79
2022/07/11 03:58:36;;;;;;;;;7.67;7.67;21.20;41.90;;;;;;5094321;28;8856;-79
2022/07/11 04:01:02;;;;;;;;;4.00;4.00;20.90;42.30;;;;;;5094275;28;8786;-80
2022/07/11 04:03:28;;;;;;;;;5.33;5.33;20.80;42.70;;;;;;5095099;28;9467;-79
2022/07/11 04:05:54;;;;;;;;;5.33;5.33;20.80;42.70;;;;;;5097699;28;8803;-79
2022/07/11 04:08:19;;;;;;;;;8.33;7.67;20.90;42.60;;;;;;5098199;28;8843;-80
2022/07/11 04:10:45;;;;;;;;;5.00;5.00;20.90;42.60;;;;;;5098311;28;8872;-80
2022/07/11 04:13:11;;;;;;;;;7.00;7.00;21.00;42.30;;;;;;5098465;28;8751;-79
2022/07/11 04:15:36;;;;;;;;;6.00;5.33;21.10;42.20;;;;;;5098582;28;8794;-80
2022/07/11 04:18:02;;;;;;;;;7.00;7.00;21.20;42.10;;;;;;5098150;28;8821;-80
2022/07/11 04:20:28;;;;;;;;;7.00;7.00;21.20;42.10;;;;;;5098032;28;8799;-79
2022/07/11 04:22:54;;;;;;;;;5.67;5.67;21.40;41.90;;;;;;5098084;28;8772;-80
2022/07/11 04:25:20;;;;;;;;;10.00;10.00;21.30;41.80;;;;;;5097756;28;8814;-80
2022/07/11 04:27:46;;;;;;;;;6.33;6.33;21.30;41.80;;;;;;5097899;28;8772;-79
2022/07/11 04:30:12;;;;;;;;;6.00;6.00;21.10;42.60;;;;;;5097863;28;8764;-80
2022/07/11 04:32:38;;;;;;;;;7.00;7.00;21.00;42.90;;;;;;5098098;28;8748;-79
2022/07/11 04:35:04;;;;;;;;;6.67;6.33;21.10;42.80;;;;;;5097699;28;8764;-81
2022/07/11 04:37:30;;;;;;;;;6.00;6.00;21.10;42.70;;;;;;5097656;28;8841;-80
2022/07/11 04:39:55;;;;;;;;;8.67;7.00;21.10;42.70;;;;;;5097880;28;8788;-79
2022/07/11 04:42:21;;;;;;;;;7.33;7.33;21.10;42.90;;;;;;5079669;28;8791;-80
2022/07/11 04:44:47;;;;;;;;;6.67;6.67;20.90;43.50;;;;;;5097422;28;8826;-80
2022/07/11 04:47:13;;;;;;;;;10.33;10.33;20.80;43.80;;;;;;5098014;28;8782;-81
2022/07/11 04:49:38;;;;;;;;;8.00;8.00;20.90;43.30;;;;;;5097480;28;9464;-80
2022/07/11 04:52:05;;;;;;;;;5.00;5.00;20.80;43.30;;;;;;5097689;28;8748;-80
2022/07/11 04:54:31;;;;;;;;;7.00;7.00;20.30;44.50;;;;;;5097532;28;8764;-80
2022/07/11 04:56:57;;;;;;;;;5.67;5.67;20.40;44.30;;;;;;5097376;28;8755;-80
2022/07/11 04:59:24;;;;;;;;;7.33;6.00;20.20;44.80;;;;;;5097258;28;8870;-80
2022/07/11 05:01:50;;;;;;;;;5.67;5.67;20.20;44.70;;;;;;5097288;28;8779;-80
2022/07/11 05:04:16;;;;;;;;;4.33;4.33;20.40;44.10;;;;;;5097377;28;8768;-81
2022/07/11 05:06:42;;;;;;;;;4.33;4.33;20.50;43.80;;;;;;5097027;28;11415;-80
2022/07/11 05:09:08;;;;;;;;;5.00;5.00;20.60;43.30;;;;;;5097367;28;8779;-81
2022/07/11 05:11:34;;;;;;;;;6.00;6.00;20.70;43.40;;;;;;5097155;28;8764;-80
2022/07/11 05:14:00;;;;;;;;;7.00;6.00;20.80;43.00;;;;;;5096903;28;8852;-80
2022/07/11 05:16:26;;;;;;;;;7.00;7.00;21.00;42.70;;;;;;5096002;28;11373;-80
2022/07/11 05:18:52;;;;;;;;;6.00;5.00;21.30;42.40;;;;;;5096924;28;9661;-80
2022/07/11 05:21:23;;;;;;;;;12.00;8.00;21.40;41.90;;;;;;5096806;28;8752;-81
2022/07/11 05:23:50;;;;;;;;;6.00;6.00;21.50;41.60;;;;;;5096762;28;8799;-80
2022/07/11 05:26:16;;;;;;;;;5.00;5.00;21.60;41.60;;;;;;5096912;28;9694;-80
2022/07/11 05:28:42;;;;;;;;;6.00;6.00;21.70;41.20;;;;;;5096801;28;11422;-80
2022/07/11 05:31:08;;;;;;;;;3.00;3.00;21.70;40.80;;;;;;5096552;28;11356;-80
2022/07/11 05:33:34;;;;;;;;;6.33;5.67;21.70;40.80;;;;;;5096676;28;8764;-81
2022/07/11 05:36:01;;;;;;;;;6.00;6.00;21.10;41.80;;;;;;5096853;28;8768;-79
2022/07/11 05:38:27;;;;;;;;;5.00;4.00;21.10;41.90;;;;;;5096415;28;11516;-80
2022/07/11 05:40:53;;;;;;;;;6.67;6.67;21.00;42.10;;;;;;5096412;28;11394;-80
2022/07/11 05:43:19;;;;;;;;;9.00;9.00;21.30;41.80;;;;;;5096659;28;8767;-80
2022/07/11 05:45:44;;;;;;;;;4.00;4.00;21.50;41.50;;;;;;5096368;28;8853;-80
2022/07/11 05:48:10;;;;;;;;;5.33;5.33;21.60;41.10;;;;;;5096389;28;8796;-80
2022/07/11 05:50:36;;;;;;;;;5.67;5.33;21.70;40.70;;;;;;5096316;28;8768;-80
2022/07/11 05:53:02;;;;;;;;;6.33;6.00;21.80;40.50;;;;;;5096377;28;8748;-80
2022/07/11 05:55:31;;;;;;;;;5.67;5.67;21.70;40.80;;;;;;5078156;28;8792;-81
2022/07/11 05:57:59;;;;;;;;;5.00;4.33;21.50;41.10;;;;;;5096445;28;8775;-81
2022/07/11 06:00:27;;;;;;;;;6.33;6.33;21.40;41.50;;;;;;5096000;28;9430;-80
2022/07/11 06:02:53;;;;;;;;;5.33;5.00;21.40;41.40;;;;;;5096062;28;8824;-81
2022/07/11 06:05:19;;;;;;;;;4.33;4.33;21.60;40.80;;;;;;5095850;28;8784;-80
2022/07/11 06:10:29;;;;;;;;;5.33;5.33;21.60;40.50;;;;;;5096070;28;8740;-80
2022/07/11 06:12:55;;;;;;;;;5.33;5.33;21.60;40.50;;;;;;5095989;28;11414;-81
2022/07/11 06:15:21;;;;;;;;;5.67;5.67;21.60;40.60;;;;;;5077834;28;11413;-81
2022/07/11 06:17:47;;;;;;;;;5.00;5.00;21.60;40.20;;;;;;5095773;28;8787;-81
2022/07/11 06:20:13;;;;;;;;;4.00;4.00;21.70;40.00;;;;;;5095662;28;8816;-81
2022/07/11 06:22:39;;;;;;;;;5.00;5.00;21.80;39.80;;;;;;5095633;28;8913;-80
2022/07/11 06:25:05;;;;;;;;;5.00;5.00;21.90;39.50;;;;;;5095490;28;8784;-81
2022/07/11 06:27:31;;;;;;;;;4.00;4.00;22.00;39.20;;;;;;5094348;28;8861;-81
2022/07/11 06:29:56;;;;;;;;;4.67;4.67;22.10;38.80;;;;;;5077392;28;11406;-81
2022/07/11 06:32:23;;;;;;;;;4.00;4.00;22.10;38.50;;;;;;5095491;28;8740;-80
2022/07/11 06:34:50;;;;;;;;;5.33;5.00;22.20;38.40;;;;;;5095680;28;8812;-80
2022/07/11 06:37:15;;;;;;;;;5.00;5.00;21.90;38.70;;;;;;5077298;28;11440;-81
2022/07/11 06:39:41;;;;;;;;;4.33;4.33;22.00;38.80;;;;;;5095207;28;8879;-81
2022/07/11 06:42:07;;;;;;;;;4.33;4.33;21.90;38.80;;;;;;5095517;28;8760;-82
2022/07/11 06:44:33;;;;;;;;;3.00;3.00;21.90;39.10;;;;;;5095116;28;8791;-81
2022/07/11 06:46:58;;;;;;;;;5.00;5.00;21.90;39.10;;;;;;5095115;28;8756;-81
2022/07/11 06:49:24;;;;;;;;;4.00;4.00;22.00;39.10;;;;;;5077270;28;8784;-81
2022/07/11 06:51:50;;;;;;;;;5.00;5.00;22.00;39.30;;;;;;5094908;28;8780;-81
2022/07/11 06:54:16;;;;;;;;;5.00;5.00;22.00;39.20;;;;;;5094971;28;8810;-81
2022/07/11 06:56:42;;;;;;;;;4.00;4.00;22.10;38.60;;;;;;5095020;28;9422;-80
2022/07/11 06:59:07;;;;;;;;;4.67;4.00;22.20;38.10;;;;;;5095246;28;8768;-80
2022/07/11 07:01:33;;;;;;;;;6.00;5.00;22.20;38.10;;;;;;5095022;28;8756;-80
2022/07/11 07:03:59;;;;;;;;;5.33;4.00;21.90;38.50;;;;;;5094946;28;9382;-81
2022/07/11 07:06:25;;;;;;;;;4.33;4.33;21.80;38.60;;;;;;5094846;28;9429;-80
2022/07/11 07:08:51;;;;;;;;;2.00;2.00;22.00;38.40;;;;;;5094947;28;8768;-80
2022/07/11 07:11:16;;;;;;;;;5.00;5.00;22.00;38.70;;;;;;5095280;28;8856;-80
2022/07/11 07:13:42;;;;;;;;;4.67;4.67;22.10;38.50;;;;;;5094823;28;8756;-80
2022/07/11 07:16:08;;;;;;;;;7.00;5.00;22.00;38.60;;;;;;5094749;28;8868;-80
2022/07/11 07:18:35;;;;;;;;;4.33;4.33;21.90;38.50;;;;;;5094915;28;8791;-80
2022/07/11 07:21:00;;;;;;;;;5.33;5.33;21.90;38.70;;;;;;5094850;28;8770;-80
2022/07/11 07:23:26;;;;;;;;;5.00;2.67;22.00;38.70;;;;;;5094523;28;11383;-79
2022/07/11 07:25:53;;;;;;;;;5.67;5.67;21.70;40.00;;;;;;5094524;28;8775;-80
2022/07/11 07:28:18;;;;;;;;;5.00;5.00;21.30;39.60;;;;;;5094838;28;8744;-80
2022/07/11 07:30:45;;;;;;;;;5.67;5.67;21.20;40.20;;;;;;5094907;28;8756;-79
2022/07/11 07:33:12;;;;;;;;;4.00;4.00;21.20;40.50;;;;;;5094845;28;9453;-80
2022/07/11 07:35:38;;;;;;;;;4.67;4.67;21.30;39.90;;;;;;5094831;28;11412;-80
2022/07/11 07:38:04;;;;;;;;;5.67;4.33;21.50;39.40;;;;;;5094018;28;11390;-80
2022/07/11 07:40:30;;;;;;;;;3.67;3.67;21.80;38.80;;;;;;5094407;28;11376;-80
2022/07/11 07:42:56;;;;;;;;;6.00;6.00;22.00;38.10;;;;;;5076709;28;8788;-81
2022/07/11 07:45:22;;;;;;;;;5.00;5.00;21.80;38.50;;;;;;5094261;28;8955;-81
2022/07/11 07:47:48;;;;;;;;;4.00;4.00;22.00;38.60;;;;;;5093987;28;11580;-79
2022/07/11 07:50:14;;;;;;;;;4.00;4.00;21.60;39.30;;;;;;5094238;28;11399;-81
2022/07/11 07:52:40;;;;;;;;;5.00;5.00;21.30;40.20;;;;;;5094251;28;11390;-80
2022/07/11 07:55:09;;;;;;;;;7.67;7.67;21.30;40.20;;;;;;5076363;28;8802;-79
2022/07/11 07:57:35;;;;;;;;;5.00;5.00;21.40;40.40;;;;;;5094350;28;8763;-80
2022/07/11 08:02:49;;;;;;;;;7.00;7.00;22.10;38.80;;;;;;5094348;28;9369;-79
2022/07/11 08:05:17;;;;;;;;;6.00;6.00;22.20;38.30;;;;;;5094132;28;11548;-80
2022/07/11 08:07:43;;;;;;;;;7.67;6.00;22.20;38.20;;;;;;5076248;28;11414;-80
2022/07/11 08:10:09;;;;;;;;;4.67;4.67;22.10;38.30;;;;;;5094150;28;11385;-79
2022/07/11 08:12:35;;;;;;;;;6.00;5.00;22.10;38.30;;;;;;5094235;28;8756;-79
2022/07/11 08:15:01;;;;;;;;;4.67;4.33;22.00;38.40;;;;;;5094043;28;11397;-80
2022/07/11 08:17:27;;;;;;;;;6.00;6.00;21.60;39.60;;;;;;5094301;28;8772;-79
2022/07/11 08:19:52;;;;;;;;;5.33;4.67;21.50;39.60;;;;;;5094069;28;8807;-80
2022/07/11 08:22:18;;;;;;;;;5.00;5.00;21.40;39.20;;;;;;5094065;28;8760;-80
2022/07/11 08:24:44;;;;;;;;;4.25;4.25;21.80;38.90;;;;;;5093963;28;8814;-80
2022/07/11 08:27:10;;;;;;;;;5.00;5.00;21.70;38.70;;;;;;5093974;28;8922;-81
2022/07/11 08:29:35;;;;;;;;;8.00;6.00;21.70;38.90;;;;;;5093826;28;8979;-80
2022/07/11 08:32:01;;;;;;;;;5.67;5.67;21.80;38.80;;;;;;5093875;28;8748;-80
2022/07/11 08:34:27;;;;;;;;;7.00;7.00;22.00;38.50;;;;;;5093785;28;8776;-79
2022/07/11 08:36:53;;;;;;;;;3.00;3.00;22.20;37.50;;;;;;5094079;28;8756;-79
2022/07/11 08:39:19;;;;;;;;;4.67;4.67;22.50;37.10;;;;;;5094183;28;8862;-79
2022/07/11 08:41:45;;;;;;;;;5.00;5.00;22.60;36.90;;;;;;5094001;28;8772;-80
2022/07/11 08:44:11;;;;;;;;;4.00;4.00;22.10;37.20;;;;;;5076127;28;8784;-79
2022/07/11 08:46:40;;;;;;;;;5.00;5.00;22.00;37.70;;;;;;5093567;28;8794;-80
2022/07/11 08:49:07;;;;;;;;;3.00;3.00;22.30;37.30;;;;;;5093834;28;12221;-80
2022/07/11 08:51:36;;;;;;;;;6.00;6.00;22.50;37.40;;;;;;5077744;28;11469;-81
2022/07/11 08:54:02;;;;;;;;;8.00;5.33;22.50;36.90;;;;;;5097157;28;11398;-81
2022/07/11 08:56:29;;;;;;;;;6.00;6.00;22.50;36.60;;;;;;5097092;28;11498;-80
2022/07/11 08:58:57;;;;;;;;;5.00;5.00;22.70;36.60;;;;;;5097407;28;8776;-80
2022/07/11 09:01:31;;;;;;;;;6.33;4.00;22.60;36.60;;;;;;5097254;28;11396;-79
2022/07/11 09:03:59;;;;;;;;;4.00;4.00;22.30;36.70;;;;;;5097221;28;11395;-80
2022/07/11 09:06:24;;;;;;;;;5.00;5.00;22.40;36.60;;;;;;5096926;28;11421;-80
2022/07/11 09:08:50;;;;;;;;;4.67;4.67;22.40;36.20;;;;;;5079006;28;11485;-80
2022/07/11 09:11:17;;;;;;;;;5.00;3.33;22.60;35.70;;;;;;5097046;28;8780;-80
2022/07/11 09:13:42;;;;;;;;;4.00;4.00;23.00;35.40;;;;;;5079065;28;8772;-81
2022/07/11 09:16:09;;;;;;;;;5.00;5.00;23.30;34.60;;;;;;5096654;28;12180;-80
2022/07/11 09:18:37;;;;;;;;;3.00;3.00;23.20;34.00;;;;;;5096752;28;8972;-80
2022/07/11 09:26:45;;;;;;;;;7.33;6.33;23.00;34.50;;;;;;5096673;28;11383;-80
2022/07/11 09:29:24;;;;;;;;;8.00;8.00;23.30;34.50;;;;;;5096730;28;11468;-80
2022/07/11 09:31:50;;;;;;;;;6.00;6.00;23.50;34.30;;;;;;5096695;28;11499;-80
2022/07/11 09:34:18;;;;;;;;;3.25;3.25;23.60;34.00;;;;;;5096847;28;11451;-80
2022/07/11 09:36:45;;;;;;;;;5.00;5.00;23.50;34.10;;;;;;5096397;28;11381;-80
2022/07/11 09:39:23;;;;;;;;;5.00;5.00;23.40;34.30;;;;;;5078495;28;11510;-81
2022/07/11 09:41:51;;;;;;;;;4.50;4.50;23.50;33.90;;;;;;5096754;28;11467;-82
2022/07/11 09:44:24;;;;;;;;;5.00;4.50;23.70;33.60;;;;;;5096244;28;11382;-82
2022/07/11 09:46:51;;;;;;;;;5.00;5.00;23.60;33.00;;;;;;5096354;28;11373;-81
2022/07/11 09:49:32;;;;;;;;;5.75;5.75;23.70;33.40;;;;;;5096704;28;11539;-79
2022/07/11 09:52:15;;;;;;;;;5.00;5.00;23.90;33.70;;;;;;5096567;28;12124;-81
2022/07/11 09:55:01;;;;;;;;;5.75;5.75;23.90;32.90;;;;;;5096336;28;11457;-79
2022/07/11 09:57:40;;;;;;;;;4.00;4.00;23.90;33.00;;;;;;5096340;28;12184;-79
2022/07/11 10:00:06;;;;;;;;;5.25;5.25;23.70;32.70;;;;;;5096047;28;11470;-79
2022/07/11 10:02:32;;;;;;;;;5.00;5.00;23.40;33.50;;;;;;5077768;28;12086;-81
2022/07/11 10:04:59;;;;;;;;;5.25;5.25;23.50;33.70;;;;;;5095755;28;11456;-82
2022/07/11 10:07:26;;;;;;;;;4.00;4.00;23.20;34.30;;;;;;5095696;28;11406;-81
2022/07/11 10:09:52;;;;;;;;;6.00;4.50;23.10;34.40;;;;;;5095735;28;11395;-80
2022/07/11 10:12:20;;;;;;;;;3.50;3.50;23.40;33.20;;;;;;5095979;28;11386;-79
2022/07/11 10:14:48;;;;;;;;;5.50;5.50;23.30;32.70;;;;;;5095748;28;8788;-79
2022/07/11 10:17:14;;;;;;;;;4.00;4.00;23.40;31.50;;;;;;5095423;28;11456;-80
2022/07/11 10:19:50;;;;;;;;;4.00;4.00;23.60;31.70;;;;;;5095655;28;11433;-81
2022/07/11 10:22:47;;;;;;;;;4.75;4.00;23.70;32.40;;;;;;5077608;28;8898;-80
2022/07/11 10:25:46;;;;;;;;;5.00;5.00;23.90;33.10;;;;;;5095354;28;11958;-80
2022/07/11 10:28:32;;;;;;;;;2.50;2.50;24.10;32.20;;;;;;5095411;28;11429;-81
2022/07/11 10:31:00;;;;;;;;;2.50;2.50;23.90;31.90;;;;;;5095384;28;11379;-81
2022/07/11 10:33:28;;;;;;;;;4.00;4.00;23.70;32.50;;;;;;5095199;28;11429;-81
2022/07/11 10:35:55;;;;;;;;;8.75;8.75;23.60;33.00;;;;;;5095229;28;11393;-81
2022/07/11 10:38:23;;;;;;;;;9.00;8.00;23.50;32.90;;;;;;5095427;28;11442;-81
2022/07/11 10:40:54;;;;;;;;;6.00;6.00;23.50;32.50;;;;;;5095280;28;11443;-81
2022/07/11 10:43:40;;;;;;;;;5.50;5.50;23.60;32.80;;;;;;5095648;28;11363;-81
2022/07/11 10:46:12;;;;;;;;;4.25;4.25;23.90;32.70;;;;;;5095063;28;11426;-81
2022/07/11 10:49:01;;;;;;;;;4.25;4.25;24.60;32.20;;;;;;5095339;28;11405;-81
2022/07/11 10:51:44;;;;;;;;;4.00;4.00;25.00;30.00;;;;;;5095115;28;11573;-81
2022/07/11 10:54:19;;;;;;;;;3.00;3.00;24.90;30.20;;;;;;5094990;28;12054;-81
2022/07/11 10:56:53;;;;;;;;;3.00;3.00;25.10;30.60;;;;;;5095306;28;11373;-82
2022/07/11 10:59:19;;;;;;;;;5.00;4.00;25.40;29.80;;;;;;5094951;28;12045;-80
2022/07/11 11:02:04;;;;;;;;;4.00;4.00;25.00;29.80;;;;;;5076783;28;11477;-80
2022/07/11 11:05:03;;;;;;;;;3.75;3.75;24.60;29.90;;;;;;5094647;28;12078;-80
2022/07/11 11:07:47;;;;;;;;;3.00;3.00;24.80;30.00;;;;;;5094664;28;11422;-80
2022/07/11 11:10:18;;;;;;;;;4.25;4.25;24.80;30.50;;;;;;5094759;28;11390;-81
2022/07/11 11:13:06;;;;;;;;;4.00;4.00;24.90;30.50;;;;;;5094491;28;11403;-81
2022/07/11 11:15:41;;;;;;;;;2.25;2.25;25.20;30.80;;;;;;5094847;28;11430;-82
2022/07/11 11:18:25;;;;;;;;;4.00;4.00;25.50;30.40;;;;;;5094603;28;11444;-81
2022/07/11 11:21:02;;;;;;;;;3.75;2.25;25.80;30.20;;;;;;5094591;28;11434;-82
2022/07/11 11:23:33;;;;;;;;;9.00;9.00;25.90;28.50;;;;;;5094607;28;11388;-82
2022/07/11 11:26:06;;;;;;;;;2.00;2.00;25.90;28.50;;;;;;5094416;28;11537;-81
2022/07/11 11:28:32;;;;;;;;;4.00;4.00;25.30;28.90;;;;;;5094523;28;12123;-82
2022/07/11 11:31:00;;;;;;;;;3.00;3.00;25.30;29.50;;;;;;5094369;28;11489;-81
2022/07/11 11:33:31;;;;;;;;;5.00;5.00;25.30;29.50;;;;;;5076616;28;8880;-80
2022/07/11 11:36:06;;;;;;;;;3.25;3.25;25.20;29.60;;;;;;5095030;28;11374;-79
2022/07/11 11:38:40;;;;;;;;;5.00;5.00;25.10;29.50;;;;;;5094456;28;12063;-79
2022/07/11 11:41:06;;;;;;;;;4.00;4.00;24.90;29.90;;;;;;5094422;28;11431;-80
2022/07/11 11:43:34;;;;;;;;;3.75;3.75;25.90;29.10;;;;;;5094536;28;11461;-81
2022/07/11 11:46:01;;;;;;;;;5.75;5.75;27.40;28.20;;;;;;5094021;28;11453;-81
2022/07/11 11:48:45;;;;;;;;;4.25;4.25;27.20;26.60;;;;;;5094451;28;11501;-80
2022/07/11 11:51:15;;;;;;;;;6.00;5.50;26.80;26.30;;;;;;5094285;28;11409;-80
2022/07/11 11:53:43;;;;;;;;;2.00;1.00;27.00;27.20;;;;;;5094265;28;11383;-81
2022/07/11 11:56:29;;;;;;;;;3.25;3.25;28.00;25.90;;;;;;5094172;28;11475;-80
2022/07/11 11:59:13;;;;;;;;;4.00;4.00;28.70;26.00;;;;;;5095538;28;12120;-83
2022/07/11 12:01:40;;;;;;;;;3.25;3.25;29.30;25.40;;;;;;5094235;28;11385;-82
2022/07/11 12:04:17;;;;;;;;;3.00;3.00;29.10;25.20;;;;;;5094123;28;12108;-83
2022/07/11 12:06:49;;;;;;;;;3.50;3.50;28.70;25.50;;;;;;5094188;28;11406;-81
2022/07/11 12:10:04;;;;;;;;;4.00;4.00;28.00;26.20;;;;;;5094048;28;11367;-81
2022/07/11 12:14:55;;;;;;;;;2.00;2.00;27.10;27.10;;;;;;5093951;28;11369;-81
2022/07/11 12:17:26;;;;;;;;;7.00;6.75;26.90;28.40;;;;;;5093789;28;11402;-80
2022/07/11 12:19:52;;;;;;;;;5.00;5.00;26.90;27.40;;;;;;5093830;28;11448;-81
2022/07/11 12:22:18;;;;;;;;;4.00;4.00;27.20;27.50;;;;;;5094156;28;11428;-82
2022/07/11 12:24:49;;;;;;;;;3.00;3.00;28.50;26.80;;;;;;5094905;28;11421;-81
2022/07/11 12:27:24;;;;;;;;;1.75;1.75;30.30;24.70;;;;;;5098127;28;8771;-81
2022/07/11 12:29:51;;;;;;;;;2.00;2.00;31.60;23.20;;;;;;5097694;28;11385;-82
2022/07/11 12:32:22;;;;;;;;;2.00;2.00;32.50;22.10;;;;;;5097651;28;11390;-81
2022/07/11 12:34:49;;;;;;;;;3.00;3.00;33.00;21.90;;;;;;5097803;28;11387;-81
2022/07/11 12:37:20;;;;;;;;;2.75;2.75;32.60;22.30;;;;;;5097458;28;11525;-81
2022/07/11 12:39:53;;;;;;;;;4.00;4.00;32.20;22.70;;;;;;5097742;28;11393;-81
2022/07/11 12:42:32;;;;;;;;;2.00;2.00;32.20;22.80;;;;;;5097709;28;11411;-81
2022/07/11 12:45:09;;;;;;;;;2.75;2.75;33.40;22.10;;;;;;5097408;28;11547;-82
2022/07/11 12:47:42;;;;;;;;;2.00;2.00;35.20;21.00;;;;;;5095525;28;11533;-81
2022/07/11 12:50:16;;;;;;;;;1.00;1.00;36.40;20.00;;;;;;5097608;28;11382;-81
2022/07/11 12:52:50;;;;;;;;;1.75;1.75;37.90;20.00;;;;;;5097678;28;11400;-82
2022/07/11 12:55:33;;;;;;;;;2.00;2.00;38.70;18.70;;;;;;5097521;28;11498;-82
2022/07/11 12:58:17;;;;;;;;;1.50;1.50;38.20;18.50;;;;;;5097519;28;11382;-82
2022/07/11 13:00:57;;;;;;;;;1.00;1.00;38.10;18.80;;;;;;5079316;28;12058;-83
2022/07/11 13:03:35;;;;;;;;;1.00;1.00;38.10;18.80;;;;;;5096971;28;11474;-83
2022/07/11 13:06:05;;;;;;;;;1.00;1.00;38.60;18.00;;;;;;5096884;28;11543;-82
2022/07/11 13:08:48;;;;;;;;;0.00;0.00;38.50;18.50;;;;;;5096980;28;11400;-83
2022/07/11 13:11:24;;;;;;;;;0.00;0.00;39.00;18.00;;;;;;5097043;28;11381;-83
2022/07/11 13:13:51;;;;;;;;;1.00;1.00;39.40;16.90;;;;;;5096922;28;11477;-83